Time;durP1;ratioP1;P1;durP2;ratioP2;P2;SDS_P1;SDS_P2;PMS_P1;PMS_P2;Temp;Humidity;BMP_temperature;BMP_pressure;BME280_temperature;BME280_humidity;BME280_pressure;Samples;Min_cycle;Max_cycle;Signal;HPM_P1;HPM_P2
2022/11/26 00:02:28;;;;;;;22.20;17.90;;;;;;;;;;108540;1259;25466;-29
2022/11/26 00:05:02;;;;;;;24.30;18.40;;;;;;;;;;108627;1266;25408;-29
2022/11/26 00:07:35;;;;;;;22.50;18.20;;;;;;;;;;108616;1266;22496;-29
2022/11/26 00:10:21;;;;;;;23.80;19.10;;;;;;;;;;108576;1268;25934;-29
2022/11/26 00:12:57;;;;;;;22.90;18.40;;;;;;;;;;108545;1268;22508;-29
2022/11/26 00:15:31;;;;;;;23.50;18.40;;;;;;;;;;108601;1267;22559;-29
2022/11/26 00:18:03;;;;;;;22.60;18.50;;;;;;;;;;108619;1265;22560;-29
2022/11/26 00:20:39;;;;;;;24.50;18.60;;;;;;;;;;108602;1259;22513;-29
2022/11/26 00:23:19;;;;;;;23.30;18.70;;;;;;;;;;108548;1268;25412;-29
2022/11/26 00:26:01;;;;;;;25.00;19.00;;;;;;;;;;108596;1266;22501;-29
2022/11/26 00:28:39;;;;;;;;;;;;;;;;;;108632;1267;25415;-29
2022/11/26 00:31:16;;;;;;;23.40;19.20;;;;;;;;;;108602;1265;24215;-29
2022/11/26 00:33:49;;;;;;;24.30;19.00;;;;;;;;;;108600;1266;22505;-29
2022/11/26 00:36:28;;;;;;;24.30;19.30;;;;;;;;;;108615;1266;22544;-29
2022/11/26 00:39:06;;;;;;;26.20;19.50;;;;;;;;;;108607;1266;25438;-29
2022/11/26 00:41:40;;;;;;;23.90;18.80;;;;;;;;;;108588;1266;24176;-29
2022/11/26 00:44:21;;;;;;;23.70;19.50;;;;;;;;;;108594;1262;22500;-29
2022/11/26 00:46:54;;;;;;;25.50;19.20;;;;;;;;;;108626;1268;22542;-29
2022/11/26 00:49:27;;;;;;;23.30;18.70;;;;;;;;;;108596;1269;22557;-29
2022/11/26 00:52:00;;;;;;;23.60;19.00;;;;;;;;;;108573;1266;22534;-29
2022/11/26 00:54:33;;;;;;;23.80;19.20;;;;;;;;;;108575;1266;22571;-29
2022/11/26 00:57:12;;;;;;;25.40;19.50;;;;;;;;;;108598;1266;23245;-29
2022/11/26 00:59:45;;;;;;;24.90;19.20;;;;;;;;;;108552;1268;22549;-29
2022/11/26 01:02:17;;;;;;;24.70;19.70;;;;;;;;;;108577;1266;22533;-29
2022/11/26 01:04:50;;;;;;;23.70;18.80;;;;;;;;;;108570;1266;22638;-29
2022/11/26 01:07:22;;;;;;;24.10;19.80;;;;;;;;;;108559;1258;22489;-29
2022/11/26 01:09:55;;;;;;;23.80;20.30;;;;;;;;;;108568;1266;22550;-29
2022/11/26 01:12:27;;;;;;;24.60;19.40;;;;;;;;;;108534;1268;22547;-29
2022/11/26 01:15:00;;;;;;;24.60;19.60;;;;;;;;;;108577;1268;22553;-29
2022/11/26 01:17:32;;;;;;;24.40;19.10;;;;;;;;;;108585;1267;22553;-29
2022/11/26 01:20:18;;;;;;;25.80;19.40;;;;;;;;;;108554;1266;25269;-29
2022/11/26 01:22:51;;;;;;;25.10;18.20;;;;;;;;;;108531;1266;22526;-29
2022/11/26 01:25:25;;;;;;;26.10;19.80;;;;;;;;;;108561;1268;22690;-29
2022/11/26 01:27:58;;;;;;;24.30;19.20;;;;;;;;;;108565;1266;22556;-29
2022/11/26 01:30:34;;;;;;;24.20;18.90;;;;;;;;;;108550;1267;22566;-29
2022/11/26 01:33:09;;;;;;;24.60;20.20;;;;;;;;;;108496;1267;22564;-29
2022/11/26 01:35:42;;;;;;;24.20;19.40;;;;;;;;;;108565;1267;23722;-29
2022/11/26 01:38:17;;;;;;;25.10;20.00;;;;;;;;;;108537;1268;23785;-29
2022/11/26 01:41:06;;;;;;;24.00;19.70;;;;;;;;;;108546;1263;22544;-29
2022/11/26 01:43:43;;;;;;;25.20;19.50;;;;;;;;;;108506;1266;24657;-29
2022/11/26 01:46:21;;;;;;;25.00;18.70;;;;;;;;;;108563;1268;22533;-29
2022/11/26 01:48:54;;;;;;;24.60;19.70;;;;;;;;;;108542;1266;22916;-29
2022/11/26 01:51:29;;;;;;;26.30;20.20;;;;;;;;;;108590;1266;22525;-29
2022/11/26 01:54:03;;;;;;;25.20;19.90;;;;;;;;;;108559;1268;23788;-29
2022/11/26 01:56:41;;;;;;;23.50;19.30;;;;;;;;;;108545;1266;22550;-29
2022/11/26 01:59:19;;;;;;;24.50;18.40;;;;;;;;;;108588;1266;22594;-29
2022/11/26 02:01:53;;;;;;;26.50;20.50;;;;;;;;;;108532;1259;22516;-29
2022/11/26 02:04:30;;;;;;;24.20;19.20;;;;;;;;;;108554;1259;22604;-29
2022/11/26 02:07:02;;;;;;;24.20;19.40;;;;;;;;;;108530;1266;25312;-29
2022/11/26 02:09:35;;;;;;;22.60;19.60;;;;;;;;;;108561;1268;24008;-29
2022/11/26 02:12:07;;;;;;;;;;;;;;;;;;108541;1259;23955;-29
2022/11/26 02:14:43;;;;;;;25.70;19.70;;;;;;;;;;108529;1268;25408;-29
2022/11/26 02:17:26;;;;;;;26.10;20.10;;;;;;;;;;108593;1265;25401;-29
2022/11/26 02:20:39;;;;;;;23.50;18.40;;;;;;;;;;108576;1258;23837;-29
2022/11/26 02:23:34;;;;;;;25.50;19.50;;;;;;;;;;108556;1267;22549;-29
2022/11/26 02:26:56;;;;;;;24.80;19.40;;;;;;;;;;108550;1268;23067;-29
2022/11/26 02:30:02;;;;;;;23.80;18.90;;;;;;;;;;108549;1268;22589;-29
2022/11/26 02:32:45;;;;;;;25.80;19.70;;;;;;;;;;108573;1266;22568;-29
2022/11/26 02:35:27;;;;;;;25.50;20.00;;;;;;;;;;108550;1267;22712;-29
2022/11/26 02:38:04;;;;;;;24.00;18.60;;;;;;;;;;108570;1268;22513;-29
2022/11/26 02:40:37;;;;;;;25.30;19.40;;;;;;;;;;108575;1269;25407;-29
2022/11/26 02:43:09;;;;;;;23.70;19.30;;;;;;;;;;108625;1268;25476;-29
2022/11/26 02:45:46;;;;;;;24.80;20.10;;;;;;;;;;108535;1266;22492;-29
2022/11/26 02:48:23;;;;;;;25.90;20.20;;;;;;;;;;108521;1262;23087;-29
2022/11/26 02:51:00;;;;;;;25.10;20.10;;;;;;;;;;108563;1266;22667;-29
2022/11/26 02:53:39;;;;;;;24.30;18.70;;;;;;;;;;108555;1268;22528;-29
2022/11/26 02:56:17;;;;;;;24.30;19.60;;;;;;;;;;108534;1268;22540;-29
2022/11/26 02:58:51;;;;;;;23.60;19.40;;;;;;;;;;108562;1259;22545;-29
2022/11/26 03:01:32;;;;;;;25.20;19.20;;;;;;;;;;108547;1259;22534;-29
2022/11/26 03:04:09;;;;;;;24.10;19.80;;;;;;;;;;108573;1263;22499;-29
2022/11/26 03:06:42;;;;;;;23.60;19.90;;;;;;;;;;108510;1266;22514;-29
2022/11/26 03:09:15;;;;;;;;;;;;;;;;;;108544;1269;22492;-29
2022/11/26 03:11:47;;;;;;;23.40;18.40;;;;;;;;;;108543;1268;22539;-29
2022/11/26 03:14:20;;;;;;;23.80;19.30;;;;;;;;;;108559;1263;22703;-29
2022/11/26 03:16:52;;;;;;;23.30;18.80;;;;;;;;;;108527;1268;22539;-29
2022/11/26 03:19:25;;;;;;;23.20;19.10;;;;;;;;;;108539;1266;22538;-29
2022/11/26 03:21:58;;;;;;;25.40;19.60;;;;;;;;;;108504;1263;22607;-29
2022/11/26 03:24:32;;;;;;;24.60;19.30;;;;;;;;;;108527;1266;22588;-29
2022/11/26 03:27:07;;;;;;;24.20;19.30;;;;;;;;;;108535;1263;22601;-29
2022/11/26 03:29:39;;;;;;;23.50;18.50;;;;;;;;;;108544;1266;22602;-29
2022/11/26 03:32:14;;;;;;;23.90;18.80;;;;;;;;;;108611;1266;22651;-29
2022/11/26 03:34:48;;;;;;;23.90;18.80;;;;;;;;;;108611;1268;22554;-29
2022/11/26 03:37:23;;;;;;;23.80;18.50;;;;;;;;;;108561;1266;24391;-29
2022/11/26 03:39:56;;;;;;;23.90;18.70;;;;;;;;;;108613;1269;25277;-29
2022/11/26 03:42:29;;;;;;;22.90;18.80;;;;;;;;;;108588;1268;22553;-29
2022/11/26 03:45:02;;;;;;;23.90;18.60;;;;;;;;;;108583;1266;22565;-29
2022/11/26 03:47:33;;;;;;;;;;;;;;;;;;108684;1268;25188;-29
2022/11/26 03:50:08;;;;;;;25.10;19.20;;;;;;;;;;108604;1267;22606;-29
2022/11/26 03:52:42;;;;;;;24.90;18.90;;;;;;;;;;108621;1259;22663;-29
2022/11/26 03:55:16;;;;;;;23.80;18.70;;;;;;;;;;108578;1259;22528;-29
2022/11/26 03:57:46;;;;;;;;;;;;;;;;;;108595;1268;25415;-29
2022/11/26 04:00:22;;;;;;;24.20;19.90;;;;;;;;;;108594;1265;22673;-29
2022/11/26 04:02:55;;;;;;;24.10;18.80;;;;;;;;;;108620;1258;22548;-29
2022/11/26 04:05:27;;;;;;;23.00;19.10;;;;;;;;;;108603;1266;23731;-29
2022/11/26 04:08:00;;;;;;;24.10;19.10;;;;;;;;;;108549;1259;22729;-29
2022/11/26 04:10:32;;;;;;;23.90;19.40;;;;;;;;;;108605;1269;22776;-29
2022/11/26 04:13:05;;;;;;;23.60;18.80;;;;;;;;;;108624;1268;22561;-29
2022/11/26 04:15:38;;;;;;;24.00;19.40;;;;;;;;;;108584;1269;22542;-29
2022/11/26 04:18:11;;;;;;;23.50;18.60;;;;;;;;;;108726;1259;22687;-29
2022/11/26 04:20:44;;;;;;;23.50;19.40;;;;;;;;;;108597;1268;22566;-29
2022/11/26 04:23:17;;;;;;;22.10;18.10;;;;;;;;;;108622;1266;22559;-29
2022/11/26 04:25:50;;;;;;;24.90;18.90;;;;;;;;;;108608;1266;25272;-29
2022/11/26 04:28:25;;;;;;;22.90;19.00;;;;;;;;;;108578;1263;22726;-29
2022/11/26 04:30:58;;;;;;;24.70;19.10;;;;;;;;;;108611;1267;22567;-29
2022/11/26 04:33:34;;;;;;;23.50;19.50;;;;;;;;;;108629;1268;22810;-29
2022/11/26 04:36:09;;;;;;;25.00;19.00;;;;;;;;;;108641;1266;22553;-29
2022/11/26 04:38:44;;;;;;;23.60;18.90;;;;;;;;;;108699;1267;25458;-29
2022/11/26 04:41:20;;;;;;;23.20;19.10;;;;;;;;;;108582;1268;25391;-29
2022/11/26 04:43:53;;;;;;;23.60;18.50;;;;;;;;;;108589;1263;22551;-29
2022/11/26 04:46:28;;;;;;;23.60;18.90;;;;;;;;;;108593;1266;23979;-29
2022/11/26 04:49:00;;;;;;;24.20;19.40;;;;;;;;;;108581;1261;22576;-29
2022/11/26 04:51:32;;;;;;;25.00;19.70;;;;;;;;;;108616;1265;24172;-29
2022/11/26 04:54:05;;;;;;;23.00;18.60;;;;;;;;;;108612;1267;25406;-29
2022/11/26 04:56:37;;;;;;;23.00;18.70;;;;;;;;;;108614;1266;22654;-29
2022/11/26 04:59:09;;;;;;;23.10;18.50;;;;;;;;;;108554;1266;22585;-29
2022/11/26 05:01:42;;;;;;;23.60;19.30;;;;;;;;;;108606;1268;22529;-28
2022/11/26 05:04:14;;;;;;;25.30;19.50;;;;;;;;;;108589;1266;22511;-29
2022/11/26 05:06:47;;;;;;;24.00;19.40;;;;;;;;;;108590;1265;22537;-29
2022/11/26 05:09:19;;;;;;;23.80;18.90;;;;;;;;;;108561;1267;22536;-29
2022/11/26 05:11:51;;;;;;;23.50;19.50;;;;;;;;;;108591;1265;22553;-29
2022/11/26 05:14:24;;;;;;;23.90;19.60;;;;;;;;;;108558;1267;22532;-29
2022/11/26 05:16:56;;;;;;;23.20;18.60;;;;;;;;;;108551;1268;22604;-29
2022/11/26 05:19:29;;;;;;;22.60;17.70;;;;;;;;;;108581;1266;22568;-29
2022/11/26 05:22:02;;;;;;;23.20;18.20;;;;;;;;;;108602;1266;22589;-29
2022/11/26 05:24:35;;;;;;;22.50;18.20;;;;;;;;;;108591;1266;22587;-29
2022/11/26 05:27:09;;;;;;;23.20;18.60;;;;;;;;;;108587;1266;25311;-29
2022/11/26 05:29:39;;;;;;;;;;;;;;;;;;108538;1268;25248;-29
2022/11/26 05:32:13;;;;;;;23.10;17.60;;;;;;;;;;108543;1268;22523;-29
2022/11/26 05:34:45;;;;;;;22.20;17.80;;;;;;;;;;108554;1267;22627;-29
2022/11/26 05:37:20;;;;;;;22.10;17.50;;;;;;;;;;108512;1268;22587;-29
2022/11/26 05:39:53;;;;;;;20.30;16.40;;;;;;;;;;108509;1259;25403;-29
2022/11/26 05:42:25;;;;;;;22.10;17.70;;;;;;;;;;108501;1268;22529;-29
2022/11/26 05:44:57;;;;;;;22.80;17.90;;;;;;;;;;108552;1263;22628;-29
2022/11/26 05:47:30;;;;;;;22.70;17.90;;;;;;;;;;108549;1268;22676;-29
2022/11/26 05:50:03;;;;;;;19.90;16.50;;;;;;;;;;108518;1266;22781;-29
2022/11/26 05:52:35;;;;;;;21.80;17.60;;;;;;;;;;108532;1267;22635;-29
2022/11/26 05:55:16;;;;;;;21.60;17.10;;;;;;;;;;108557;1266;22637;-29
2022/11/26 05:57:48;;;;;;;21.00;16.80;;;;;;;;;;108568;1268;22544;-29
2022/11/26 06:00:27;;;;;;;20.80;16.60;;;;;;;;;;108510;1268;22568;-29
2022/11/26 06:03:01;;;;;;;21.10;16.70;;;;;;;;;;108570;1269;22513;-29
2022/11/26 06:05:34;;;;;;;21.20;16.70;;;;;;;;;;108527;1266;22696;-29
2022/11/26 06:08:08;;;;;;;19.50;16.40;;;;;;;;;;108535;1269;22511;-29
2022/11/26 06:10:42;;;;;;;20.90;16.80;;;;;;;;;;108525;1267;25955;-29
2022/11/26 06:13:18;;;;;;;19.80;15.90;;;;;;;;;;108550;1267;22548;-29
2022/11/26 06:15:49;;;;;;;;;;;;;;;;;;108603;1269;24206;-29
2022/11/26 06:18:21;;;;;;;18.90;15.40;;;;;;;;;;108554;1265;22696;-29
2022/11/26 06:20:54;;;;;;;18.90;15.90;;;;;;;;;;108496;1268;22561;-29
2022/11/26 06:23:31;;;;;;;20.50;16.00;;;;;;;;;;108526;1266;22509;-29
2022/11/26 06:26:09;;;;;;;20.00;15.60;;;;;;;;;;108546;1266;22546;-29
2022/11/26 06:28:51;;;;;;;20.00;15.40;;;;;;;;;;108552;1265;23843;-29
2022/11/26 06:31:24;;;;;;;19.30;15.30;;;;;;;;;;108521;1267;25232;-29
2022/11/26 06:33:58;;;;;;;18.80;14.90;;;;;;;;;;108564;1268;22537;-29
2022/11/26 06:36:31;;;;;;;19.10;15.60;;;;;;;;;;108570;1266;22513;-29
2022/11/26 06:39:04;;;;;;;19.00;15.60;;;;;;;;;;108529;1268;22510;-29
2022/11/26 06:41:37;;;;;;;19.70;16.10;;;;;;;;;;108559;1268;24016;-29
2022/11/26 06:44:11;;;;;;;19.40;15.00;;;;;;;;;;108516;1265;25413;-29
2022/11/26 06:46:43;;;;;;;18.80;15.00;;;;;;;;;;108574;1266;23854;-29
2022/11/26 06:49:15;;;;;;;18.80;15.50;;;;;;;;;;108302;1267;315562;-29
2022/11/26 06:51:48;;;;;;;19.00;15.30;;;;;;;;;;108518;1266;22616;-29
2022/11/26 06:54:20;;;;;;;17.60;14.30;;;;;;;;;;108532;1268;22521;-29
2022/11/26 06:56:53;;;;;;;18.30;14.40;;;;;;;;;;108519;1268;22540;-29
2022/11/26 06:59:26;;;;;;;18.40;14.70;;;;;;;;;;108514;1266;22511;-29
2022/11/26 07:01:58;;;;;;;18.40;14.10;;;;;;;;;;108536;1266;22757;-29
2022/11/26 07:04:30;;;;;;;19.20;14.10;;;;;;;;;;108527;1263;22570;-29
2022/11/26 07:07:03;;;;;;;19.10;15.20;;;;;;;;;;108560;1266;22586;-29
2022/11/26 07:09:36;;;;;;;16.80;14.30;;;;;;;;;;108572;1266;22563;-29
2022/11/26 07:12:09;;;;;;;18.50;14.30;;;;;;;;;;108567;1266;24233;-29
2022/11/26 07:14:41;;;;;;;17.00;13.60;;;;;;;;;;108548;1267;22547;-29
2022/11/26 07:17:14;;;;;;;17.70;14.10;;;;;;;;;;108564;1263;22515;-29
2022/11/26 07:19:46;;;;;;;17.40;14.20;;;;;;;;;;108564;1259;22507;-29
2022/11/26 07:22:19;;;;;;;17.50;14.10;;;;;;;;;;108508;1268;22517;-29
2022/11/26 07:24:57;;;;;;;17.90;14.10;;;;;;;;;;108544;1266;24323;-29
2022/11/26 07:27:31;;;;;;;16.90;13.10;;;;;;;;;;108530;1266;25249;-29
2022/11/26 07:30:05;;;;;;;17.40;13.60;;;;;;;;;;108541;1268;25290;-29
2022/11/26 07:32:38;;;;;;;16.60;12.70;;;;;;;;;;108619;1262;25402;-29
2022/11/26 07:35:11;;;;;;;18.10;13.40;;;;;;;;;;108470;1268;23326;-29
2022/11/26 07:37:43;;;;;;;17.30;13.20;;;;;;;;;;108512;1259;22695;-29
2022/11/26 07:40:19;;;;;;;18.20;13.70;;;;;;;;;;108482;1268;22532;-29
2022/11/26 07:42:52;;;;;;;20.40;13.80;;;;;;;;;;108565;1265;25425;-29
2022/11/26 07:45:25;;;;;;;17.10;13.30;;;;;;;;;;108632;1265;22546;-29
2022/11/26 07:47:57;;;;;;;16.20;13.20;;;;;;;;;;108593;1265;22572;-29
2022/11/26 07:50:30;;;;;;;17.20;12.50;;;;;;;;;;108598;1266;22982;-29
2022/11/26 07:53:05;;;;;;;17.40;12.80;;;;;;;;;;108486;1268;22567;-29
2022/11/26 07:55:39;;;;;;;16.20;12.80;;;;;;;;;;108494;1267;22683;-29
2022/11/26 07:58:12;;;;;;;17.00;12.40;;;;;;;;;;108517;1266;22767;-29
2022/11/26 08:00:45;;;;;;;18.50;12.60;;;;;;;;;;108535;1266;22903;-29
2022/11/26 08:03:17;;;;;;;17.80;13.20;;;;;;;;;;108727;1265;22583;-29
2022/11/26 08:05:53;;;;;;;15.80;11.90;;;;;;;;;;108627;1265;22550;-29
2022/11/26 08:08:28;;;;;;;15.80;12.20;;;;;;;;;;108628;1258;22567;-29
2022/11/26 08:11:00;;;;;;;16.10;12.10;;;;;;;;;;108530;1267;22627;-28
2022/11/26 08:13:35;;;;;;;15.00;11.50;;;;;;;;;;108490;1266;22564;-28
2022/11/26 08:16:08;;;;;;;16.20;12.00;;;;;;;;;;108541;1267;25306;-28
2022/11/26 08:18:41;;;;;;;14.90;11.70;;;;;;;;;;108493;1265;22550;-28
2022/11/26 08:21:15;;;;;;;15.40;12.00;;;;;;;;;;108480;1267;25059;-29
2022/11/26 08:23:47;;;;;;;14.10;11.00;;;;;;;;;;108504;1266;25273;-28
2022/11/26 08:26:20;;;;;;;15.50;12.00;;;;;;;;;;108565;1265;23875;-29
2022/11/26 08:28:54;;;;;;;15.40;12.10;;;;;;;;;;108618;1265;22566;-29
2022/11/26 08:31:26;;;;;;;16.10;11.80;;;;;;;;;;108606;1265;25402;-30
2022/11/26 08:34:02;;;;;;;16.10;12.10;;;;;;;;;;108439;1269;22571;-30
2022/11/26 08:36:35;;;;;;;15.60;12.00;;;;;;;;;;108526;1269;25402;-30
2022/11/26 08:39:08;;;;;;;15.80;12.10;;;;;;;;;;108497;1267;22564;-30
2022/11/26 08:41:41;;;;;;;15.90;11.20;;;;;;;;;;108541;1269;22554;-30
2022/11/26 08:44:13;;;;;;;15.40;12.00;;;;;;;;;;108598;1269;22546;-30
2022/11/26 08:46:45;;;;;;;15.70;11.40;;;;;;;;;;108618;1266;24218;-30
2022/11/26 08:49:20;;;;;;;14.30;10.90;;;;;;;;;;108582;1266;22545;-30
2022/11/26 08:51:56;;;;;;;14.30;10.80;;;;;;;;;;108591;1265;22555;-30
2022/11/26 08:54:32;;;;;;;15.00;11.40;;;;;;;;;;108600;1264;22726;-30
2022/11/26 08:57:05;;;;;;;14.70;11.30;;;;;;;;;;108540;1266;22558;-30
2022/11/26 08:59:37;;;;;;;14.70;11.40;;;;;;;;;;108497;1266;22565;-30
2022/11/26 09:02:11;;;;;;;14.90;11.60;;;;;;;;;;108524;1259;22522;-30
2022/11/26 09:04:46;;;;;;;14.50;11.20;;;;;;;;;;108717;1259;25280;-30
2022/11/26 09:07:22;;;;;;;14.50;10.70;;;;;;;;;;108635;1272;23377;-31
2022/11/26 09:09:57;;;;;;;14.40;10.90;;;;;;;;;;108683;1266;22537;-31
2022/11/26 09:12:29;;;;;;;14.60;10.90;;;;;;;;;;108741;1265;24228;-31
2022/11/26 09:15:02;;;;;;;14.00;10.90;;;;;;;;;;108639;1268;22682;-31
2022/11/26 09:17:40;;;;;;;15.00;11.70;;;;;;;;;;108587;1261;24185;-31
2022/11/26 09:20:15;;;;;;;13.80;10.50;;;;;;;;;;108703;1268;25283;-32
2022/11/26 09:22:53;;;;;;;14.80;11.10;;;;;;;;;;108694;1267;22516;-31
2022/11/26 09:25:29;;;;;;;15.30;11.30;;;;;;;;;;108693;1266;22834;-31
2022/11/26 09:28:03;;;;;;;14.20;10.40;;;;;;;;;;108625;1270;25283;-32
2022/11/26 09:30:40;;;;;;;16.00;11.30;;;;;;;;;;108627;1267;22605;-32
2022/11/26 09:33:13;;;;;;;15.50;10.90;;;;;;;;;;108618;1265;25242;-32
2022/11/26 09:35:46;;;;;;;14.20;10.70;;;;;;;;;;108580;1269;22609;-32
2022/11/26 09:38:18;;;;;;;15.00;10.80;;;;;;;;;;108538;1268;22552;-32
2022/11/26 09:40:58;;;;;;;14.90;11.10;;;;;;;;;;108505;1266;22553;-32
2022/11/26 09:43:38;;;;;;;14.80;11.40;;;;;;;;;;108511;1269;24019;-31
2022/11/26 09:46:13;;;;;;;15.10;11.60;;;;;;;;;;108689;1269;22538;-32
2022/11/26 09:48:46;;;;;;;14.90;11.50;;;;;;;;;;108649;1266;24380;-32
2022/11/26 09:51:20;;;;;;;;;;;;;;;;;;108614;1265;25254;-32
2022/11/26 09:53:53;;;;;;;15.40;11.30;;;;;;;;;;108612;1265;23209;-32
2022/11/26 09:56:28;;;;;;;14.50;11.30;;;;;;;;;;108532;1271;22551;-32
2022/11/26 09:59:05;;;;;;;15.30;11.30;;;;;;;;;;108525;1269;22532;-32
2022/11/26 10:01:38;;;;;;;15.20;11.70;;;;;;;;;;108555;1266;22549;-32
2022/11/26 10:04:21;;;;;;;15.30;12.10;;;;;;;;;;108554;1267;22515;-32
2022/11/26 10:07:04;;;;;;;14.10;10.80;;;;;;;;;;108640;1265;22524;-32
2022/11/26 10:09:53;;;;;;;16.00;11.30;;;;;;;;;;108663;1265;22590;-32
2022/11/26 10:12:45;;;;;;;14.90;11.10;;;;;;;;;;108564;1267;22522;-32
2022/11/26 10:15:24;;;;;;;15.00;11.30;;;;;;;;;;108543;1259;25325;-32
2022/11/26 10:18:11;;;;;;;14.30;11.00;;;;;;;;;;108497;1265;22590;-30
2022/11/26 10:20:59;;;;;;;16.90;11.90;;;;;;;;;;108514;1271;22545;-30
2022/11/26 10:23:40;;;;;;;16.30;11.60;;;;;;;;;;108526;1269;22545;-30
2022/11/26 10:26:17;;;;;;;15.70;11.40;;;;;;;;;;108534;1260;22538;-30
2022/11/26 10:28:52;;;;;;;16.00;11.10;;;;;;;;;;108615;1272;25270;-30
2022/11/26 10:31:30;;;;;;;16.10;11.50;;;;;;;;;;108599;1265;22531;-30
2022/11/26 10:34:09;;;;;;;15.90;11.50;;;;;;;;;;108653;1266;25446;-30
2022/11/26 10:36:44;;;;;;;15.00;11.10;;;;;;;;;;108520;1259;25300;-30
2022/11/26 10:39:20;;;;;;;15.10;11.10;;;;;;;;;;108502;1271;24360;-30
2022/11/26 10:41:53;;;;;;;18.70;11.70;;;;;;;;;;108505;1270;24183;-29
2022/11/26 10:44:42;;;;;;;14.20;10.80;;;;;;;;;;108562;1267;25243;-29
2022/11/26 10:47:30;;;;;;;14.50;11.20;;;;;;;;;;108666;1266;22626;-31
2022/11/26 10:50:22;;;;;;;14.60;11.20;;;;;;;;;;108755;1265;22510;-31
2022/11/26 10:52:56;;;;;;;14.50;11.10;;;;;;;;;;108826;1266;22567;-31
2022/11/26 10:55:34;;;;;;;15.60;11.40;;;;;;;;;;108726;1272;22530;-31
2022/11/26 10:58:19;;;;;;;15.40;11.50;;;;;;;;;;108545;1271;22531;-30
2022/11/26 11:01:01;;;;;;;14.40;10.90;;;;;;;;;;108468;1268;22544;-30
2022/11/26 11:03:47;;;;;;;16.50;11.50;;;;;;;;;;108525;1272;22558;-30
2022/11/26 11:06:40;;;;;;;15.20;11.90;;;;;;;;;;108479;1270;25388;-30
2022/11/26 11:09:33;;;;;;;16.50;12.50;;;;;;;;;;108615;1267;22698;-32
2022/11/26 11:12:27;;;;;;;14.20;10.90;;;;;;;;;;108599;1272;22621;-29
2022/11/26 11:15:19;;;;;;;14.60;10.70;;;;;;;;;;108654;1265;22577;-29
2022/11/26 11:18:00;;;;;;;14.70;10.80;;;;;;;;;;108491;1272;22659;-29
2022/11/26 11:20:36;;;;;;;14.30;11.20;;;;;;;;;;108524;1269;22551;-29
2022/11/26 11:23:22;;;;;;;15.20;10.90;;;;;;;;;;108550;1272;22495;-29
2022/11/26 11:26:07;;;;;;;14.20;10.90;;;;;;;;;;108511;1272;22517;-29
2022/11/26 11:28:48;;;;;;;14.20;10.80;;;;;;;;;;108756;1266;25400;-30
2022/11/26 11:31:27;;;;;;;15.20;11.50;;;;;;;;;;108572;1266;22628;-30
2022/11/26 11:34:21;;;;;;;16.60;11.70;;;;;;;;;;108578;1266;22507;-30
2022/11/26 11:37:05;;;;;;;15.20;11.50;;;;;;;;;;108541;1265;22554;-30
2022/11/26 11:39:39;;;;;;;15.00;10.90;;;;;;;;;;108516;1267;23857;-30
2022/11/26 11:42:23;;;;;;;15.00;11.60;;;;;;;;;;108527;1266;22547;-30
2022/11/26 11:44:56;;;;;;;14.00;11.00;;;;;;;;;;108540;1269;22562;-30
2022/11/26 11:47:38;;;;;;;14.80;11.00;;;;;;;;;;108485;1272;22773;-30
2022/11/26 11:50:22;;;;;;;13.50;10.90;;;;;;;;;;108609;1263;24177;-30
2022/11/26 11:53:18;;;;;;;14.10;11.10;;;;;;;;;;108624;1266;22544;-30
2022/11/26 11:56:02;;;;;;;14.70;11.20;;;;;;;;;;108609;1269;22618;-30
2022/11/26 11:59:04;;;;;;;14.90;11.70;;;;;;;;;;108641;1269;23876;-31
2022/11/26 12:01:58;;;;;;;15.10;11.20;;;;;;;;;;108655;1266;22573;-32
2022/11/26 12:05:00;;;;;;;15.70;11.60;;;;;;;;;;108505;1266;25397;-32
2022/11/26 12:07:39;;;;;;;14.00;10.80;;;;;;;;;;108514;1270;22614;-31
2022/11/26 12:10:17;;;;;;;14.10;10.90;;;;;;;;;;108565;1266;22552;-32
2022/11/26 12:12:54;;;;;;;15.20;11.40;;;;;;;;;;108664;1272;22574;-32
2022/11/26 12:15:33;;;;;;;13.80;11.50;;;;;;;;;;108594;1272;22591;-32
2022/11/26 12:18:25;;;;;;;13.20;10.90;;;;;;;;;;108558;1269;22583;-32
2022/11/26 12:21:01;;;;;;;13.20;11.10;;;;;;;;;;108543;1271;22549;-32
2022/11/26 12:23:45;;;;;;;14.20;10.70;;;;;;;;;;108527;1271;22526;-32
2022/11/26 12:26:22;;;;;;;13.40;10.80;;;;;;;;;;108511;1267;22596;-32
2022/11/26 12:29:02;;;;;;;13.50;11.50;;;;;;;;;;108538;1267;22517;-32
2022/11/26 12:31:41;;;;;;;13.50;11.00;;;;;;;;;;108593;1266;22544;-32
2022/11/26 12:34:22;;;;;;;12.30;10.50;;;;;;;;;;108620;1266;22544;-32
2022/11/26 12:37:00;;;;;;;14.30;11.40;;;;;;;;;;108610;1268;22541;-32
2022/11/26 12:39:43;;;;;;;13.90;10.90;;;;;;;;;;108492;1272;22530;-31
2022/11/26 12:42:22;;;;;;;13.20;11.20;;;;;;;;;;108688;1269;22568;-31
2022/11/26 12:45:00;;;;;;;13.50;11.20;;;;;;;;;;108641;1259;22610;-31
2022/11/26 12:47:39;;;;;;;12.80;10.70;;;;;;;;;;108693;1265;22568;-31
2022/11/26 12:50:21;;;;;;;13.80;11.00;;;;;;;;;;108717;1266;22633;-32
2022/11/26 12:53:01;;;;;;;12.90;10.40;;;;;;;;;;108744;1272;25424;-31
2022/11/26 12:55:42;;;;;;;13.20;10.50;;;;;;;;;;108757;1269;23002;-31
2022/11/26 12:58:21;;;;;;;13.20;10.70;;;;;;;;;;108697;1267;24309;-32
2022/11/26 13:00:56;;;;;;;13.90;10.80;;;;;;;;;;108688;1271;22559;-31
2022/11/26 13:03:33;;;;;;;13.70;11.00;;;;;;;;;;108644;1270;25405;-30
2022/11/26 13:06:20;;;;;;;13.40;10.90;;;;;;;;;;108681;1270;22576;-31
2022/11/26 13:09:03;;;;;;;13.40;10.60;;;;;;;;;;108668;1271;22597;-32
2022/11/26 13:11:49;;;;;;;13.90;10.70;;;;;;;;;;108754;1263;22593;-31
2022/11/26 13:14:38;;;;;;;14.70;11.20;;;;;;;;;;108804;1269;22553;-31
2022/11/26 13:17:17;;;;;;;13.60;11.10;;;;;;;;;;108754;1267;22561;-31
2022/11/26 13:19:53;;;;;;;12.60;9.90;;;;;;;;;;108739;1265;22533;-31
2022/11/26 13:22:59;;;;;;;13.50;10.80;;;;;;;;;;108673;1271;22564;-31
2022/11/26 13:25:51;;;;;;;12.70;10.40;;;;;;;;;;108694;1266;22609;-32
2022/11/26 13:28:45;;;;;;;12.80;10.00;;;;;;;;;;108753;1272;22573;-32
2022/11/26 13:31:37;;;;;;;12.30;10.00;;;;;;;;;;108892;1271;22545;-31
2022/11/26 13:34:27;;;;;;;13.40;10.20;;;;;;;;;;108788;1265;25335;-31
2022/11/26 13:37:45;;;;;;;13.40;11.00;;;;;;;;;;108839;1265;22773;-31
2022/11/26 13:40:55;;;;;;;13.30;10.30;;;;;;;;;;108626;1265;24189;-31
2022/11/26 13:44:05;;;;;;;12.80;9.90;;;;;;;;;;108711;1271;22855;-31
2022/11/26 13:46:44;;;;;;;12.90;10.30;;;;;;;;;;108722;1267;24196;-31
2022/11/26 13:49:22;;;;;;;13.10;10.40;;;;;;;;;;108711;1265;25309;-32
2022/11/26 13:52:00;;;;;;;12.10;10.00;;;;;;;;;;108867;1267;22567;-32
2022/11/26 13:54:42;;;;;;;13.40;10.50;;;;;;;;;;108737;1272;22697;-31
2022/11/26 13:57:30;;;;;;;13.30;10.80;;;;;;;;;;108750;1266;22580;-31
2022/11/26 14:00:07;;;;;;;13.30;9.90;;;;;;;;;;108748;1272;22514;-31
2022/11/26 14:02:43;;;;;;;13.50;10.40;;;;;;;;;;108731;1267;22605;-32
2022/11/26 14:05:18;;;;;;;12.90;10.30;;;;;;;;;;108694;1268;22555;-31
2022/11/26 14:07:51;;;;;;;12.50;10.10;;;;;;;;;;108697;1262;23965;-31
2022/11/26 14:10:44;;;;;;;13.20;10.40;;;;;;;;;;108674;1271;22522;-31
2022/11/26 14:13:18;;;;;;;12.00;10.00;;;;;;;;;;108800;1265;25222;-32
2022/11/26 14:16:03;;;;;;;12.60;10.20;;;;;;;;;;108826;1271;23977;-32
2022/11/26 14:19:00;;;;;;;12.60;10.60;;;;;;;;;;108755;1271;22560;-31
2022/11/26 14:21:53;;;;;;;12.70;9.80;;;;;;;;;;108694;1266;22553;-32
2022/11/26 14:27:51;;;;;;;12.70;10.40;;;;;;;;;;104946;1307;549327;-32
2022/11/26 14:30:27;;;;;;;13.40;10.10;;;;;;;;;;108270;1275;22569;-32
2022/11/26 14:33:15;;;;;;;13.20;10.10;;;;;;;;;;108217;1273;22521;-32
2022/11/26 14:35:55;;;;;;;13.00;10.60;;;;;;;;;;108330;1275;22524;-32
2022/11/26 14:38:30;;;;;;;13.20;10.60;;;;;;;;;;108255;1272;22611;-32
2022/11/26 14:41:06;;;;;;;13.70;10.50;;;;;;;;;;108402;1268;371319;-32
2022/11/26 14:43:36;;;;;;;13.60;10.90;;;;;;;;;;108710;1268;22665;-32
2022/11/26 14:46:14;;;;;;;13.70;10.50;;;;;;;;;;108718;1267;22590;-31
2022/11/26 14:48:47;;;;;;;13.80;10.60;;;;;;;;;;108827;1259;23310;-32
2022/11/26 14:51:23;;;;;;;14.00;10.80;;;;;;;;;;108791;1265;22573;-32
2022/11/26 14:53:53;;;;;;;13.00;9.90;;;;;;;;;;108789;1266;22620;-32
2022/11/26 14:56:25;;;;;;;12.60;10.00;;;;;;;;;;108844;1265;22541;-32
2022/11/26 14:58:58;;;;;;;13.60;10.60;;;;;;;;;;108712;1267;22521;-32
2022/11/26 15:01:32;;;;;;;13.50;10.00;;;;;;;;;;108741;1268;22571;-32
2022/11/26 15:04:06;;;;;;;12.30;10.10;;;;;;;;;;108736;1268;22513;-32
2022/11/26 15:06:44;;;;;;;12.80;10.30;;;;;;;;;;108725;1265;23844;-32
2022/11/26 15:09:18;;;;;;;12.30;9.90;;;;;;;;;;108735;1265;22626;-32